Time;durP1;ratioP1;P1;durP2;ratioP2;P2;SDS_P1;SDS_P2;PMS_P1;PMS_P2;Temp;Humidity;BMP_temperature;BMP_pressure;BME280_temperature;BME280_humidity;BME280_pressure;Samples;Min_cycle;Max_cycle;Signal;HPM_P1;HPM_P2
2021/07/13 00:00:30;;;;;;;4.10;2.60;;;;;;;19.18;94.77;98007.41;5052834;28;20036;-72
2021/07/13 00:02:56;;;;;;;6.85;3.53;;;;;;;19.30;94.89;98018.03;5054767;28;20039;-72
2021/07/13 00:05:23;;;;;;;6.90;3.08;;;;;;;19.29;94.51;98019.16;5036461;28;20560;-72
2021/07/13 00:07:49;;;;;;;5.07;2.92;;;;;;;19.27;94.61;98024.09;5053616;28;20497;-72
2021/07/13 00:10:18;;;;;;;3.65;2.70;;;;;;;19.25;94.21;98027.09;5053509;28;20063;-71
2021/07/13 00:12:43;;;;;;;4.27;3.07;;;;;;;19.25;94.07;98015.31;5044918;28;20029;-72
2021/07/13 00:15:12;;;;;;;2.85;2.50;;;;;;;19.27;94.08;98015.84;5044805;28;20305;-72
2021/07/13 00:17:38;;;;;;;3.50;2.78;;;;;;;19.27;93.60;98024.09;5054167;28;20033;-71
2021/07/13 00:20:05;;;;;;;5.40;2.95;;;;;;;19.27;93.32;98024.09;5054207;28;20033;-72
2021/07/13 00:22:31;;;;;;;5.35;2.83;;;;;;;19.25;93.59;98018.03;5054489;28;20025;-72
2021/07/13 00:24:56;;;;;;;4.00;2.92;;;;;;;19.32;92.94;98023.25;5053621;28;20166;-72
2021/07/13 00:27:22;;;;;;;4.07;2.67;;;;;;;19.29;92.83;98015.59;5054282;28;20039;-71
2021/07/13 00:29:47;;;;;;;4.53;2.63;;;;;;;19.24;93.50;98016.41;5054672;28;20479;-71
2021/07/13 00:32:12;;;;;;;2.95;2.33;;;;;;;19.18;93.68;98015.63;5052830;28;20101;-72
2021/07/13 00:34:38;;;;;;;4.28;2.65;;;;;;;19.29;93.30;98027.38;5053529;28;20036;-72
2021/07/13 00:37:04;;;;;;;3.45;2.42;;;;;;;19.34;92.81;98023.81;5054256;28;20029;-72
2021/07/13 00:39:29;;;;;;;6.82;2.65;;;;;;;19.25;92.22;98016.13;5054534;28;20071;-71
2021/07/13 00:41:54;;;;;;;5.18;2.60;;;;;;;19.23;92.89;98028.47;5036362;28;20044;-72
2021/07/13 00:44:20;;;;;;;4.05;2.67;;;;;;;19.20;93.30;98029.03;5052770;28;20502;-71
2021/07/13 00:46:47;;;;;;;3.30;2.50;;;;;;;19.28;92.99;98025.72;5043545;28;20040;-72
2021/07/13 00:49:15;;;;;;;3.55;2.67;;;;;;;19.26;92.83;98034.25;5053998;28;20021;-71
2021/07/13 00:51:41;;;;;;;4.95;2.80;;;;;;;19.20;93.26;98035.38;5036054;28;20135;-72
2021/07/13 00:54:09;;;;;;;4.20;2.75;;;;;;;19.22;92.73;98033.13;5053680;28;20035;-72
2021/07/13 00:56:40;;;;;;;5.93;2.35;;;;;;;19.20;91.53;98029.88;5044460;28;20061;-71
2021/07/13 00:59:05;;;;;;;5.68;2.40;;;;;;;19.19;91.89;98028.22;5052443;28;20029;-72
2021/07/13 01:01:31;;;;;;;7.43;2.78;;;;;;;19.09;91.65;98027.44;5051053;28;20100;-71
2021/07/13 01:03:57;;;;;;;3.67;2.13;;;;;;;19.01;91.58;98032.38;5035562;28;20024;-72
2021/07/13 01:06:25;;;;;;;3.30;2.10;;;;;;;18.85;91.30;98044.47;5052606;28;20505;-71
2021/07/13 01:09:02;;;;;;;4.10;1.98;;;;;;;19.04;91.45;98053.75;5054135;28;20029;-72
2021/07/13 01:12:02;;;;;;;3.88;1.88;;;;;;;18.99;91.56;98056.53;5053472;28;20095;-71
2021/07/13 01:14:44;;;;;;;3.65;1.75;;;;;;;18.97;92.07;98046.94;5051812;28;20032;-71
2021/07/13 01:17:16;;;;;;;4.97;2.03;;;;;;;18.85;91.52;98060.91;5035219;28;20479;-72
2021/07/13 01:20:06;;;;;;;4.82;2.33;;;;;;;18.79;92.20;98070.25;5051992;28;20397;-71
2021/07/13 01:22:38;;;;;;;5.20;2.30;;;;;;;18.79;92.32;98073.78;5034899;28;20056;-72
2021/07/13 01:25:11;;;;;;;3.45;2.15;;;;;;;18.75;92.44;98055.44;5053152;28;20490;-71
2021/07/13 01:28:06;;;;;;;3.45;2.50;;;;;;;18.70;93.41;98047.19;5052715;28;20056;-71
2021/07/13 01:30:38;;;;;;;3.55;2.45;;;;;;;18.68;92.90;98017.31;5052676;28;20507;-72
2021/07/13 01:33:08;;;;;;;8.38;2.45;;;;;;;18.74;92.46;98007.19;5053408;28;20032;-72
2021/07/13 01:35:52;;;;;;;3.58;2.20;;;;;;;18.66;93.09;98016.78;5053415;28;20075;-71
2021/07/13 01:38:20;;;;;;;5.45;2.35;;;;;;;18.62;93.95;98027.44;5052545;28;20029;-71
2021/07/13 01:40:51;;;;;;;3.35;2.30;;;;;;;18.57;94.51;98011.00;5052277;28;20035;-72
2021/07/13 01:43:17;;;;;;;6.13;2.72;;;;;;;18.53;95.24;97998.97;5051687;28;20060;-72
2021/07/13 01:45:43;;;;;;;4.15;2.53;;;;;;;18.52;95.50;97989.13;5053112;28;20138;-72
2021/07/13 01:48:10;;;;;;;7.30;2.80;;;;;;;18.53;95.28;97971.56;5034373;28;20021;-72
2021/07/13 01:50:37;;;;;;;4.13;2.78;;;;;;;18.47;96.00;97978.16;5042263;28;20438;-72
2021/07/13 01:53:03;;;;;;;7.43;4.03;;;;;;;18.39;96.24;97975.94;5044313;28;20031;-72
2021/07/13 01:55:33;;;;;;;5.30;3.60;;;;;;;18.37;96.96;97972.69;5052852;28;20086;-72
2021/07/13 01:57:59;;;;;;;7.40;3.25;;;;;;;18.33;97.35;97971.59;5034890;28;20478;-72
2021/07/13 02:00:25;;;;;;;6.32;3.90;;;;;;;18.22;97.76;97948.03;5067969;22;20048;-72
2021/07/13 02:02:51;;;;;;;6.78;4.85;;;;;;;18.21;98.48;97960.06;5052323;28;20116;-73
2021/07/13 02:05:19;;;;;;;10.60;4.50;;;;;;;18.42;98.52;97982.81;5051864;28;20508;-72
2021/07/13 02:07:49;;;;;;;8.85;4.82;;;;;;;18.23;99.19;97966.09;5034763;28;20025;-74
2021/07/13 02:10:17;;;;;;;9.05;5.40;;;;;;;18.26;99.69;97987.47;5052461;28;20021;-75
2021/07/13 02:12:42;;;;;;;9.57;5.32;;;;;;;18.03;100.00;97959.53;5051856;28;20024;-75
2021/07/13 02:15:08;;;;;;;7.95;4.95;;;;;;;18.18;100.00;97989.66;5052636;28;20025;-74
2021/07/13 02:17:34;;;;;;;14.20;5.68;;;;;;;18.29;100.00;98000.63;5052071;28;20033;-73
2021/07/13 02:20:00;;;;;;;7.05;5.13;;;;;;;18.22;100.00;97997.31;5052062;28;20052;-74
2021/07/13 02:22:26;;;;;;;13.43;5.70;;;;;;;18.15;100.00;97995.66;5051306;28;20044;-73
2021/07/13 02:24:51;;;;;;;6.95;5.32;;;;;;;18.25;100.00;98022.25;5052237;28;20075;-76
2021/07/13 02:27:19;;;;;;;7.57;5.05;;;;;;;18.25;100.00;98024.97;5034470;28;20033;-75
2021/07/13 02:30:00;;;;;;;6.78;5.13;;;;;;;18.20;100.00;98021.41;5031063;28;20025;-75
2021/07/13 02:32:40;;;;;;;8.73;5.53;;;;;;;18.32;100.00;98039.22;5032385;28;20028;-76
2021/07/13 02:35:07;;;;;;;12.23;5.95;;;;;;;18.08;100.00;98008.81;5022010;28;20494;-74
2021/07/13 02:37:36;;;;;;;9.52;4.65;;;;;;;18.11;100.00;98024.69;5051757;28;20025;-75
2021/07/13 02:40:05;;;;;;;7.63;4.47;;;;;;;18.20;100.00;98037.84;5051798;28;20432;-75
2021/07/13 02:42:31;;;;;;;7.72;4.13;;;;;;;17.98;100.00;98025.22;5051551;28;20057;-74
2021/07/13 02:44:56;;;;;;;9.75;5.03;;;;;;;17.94;100.00;98055.03;5052011;28;20079;-74
2021/07/13 02:47:23;;;;;;;8.65;4.68;;;;;;;17.90;100.00;98042.16;5033975;28;20036;-74
2021/07/13 02:49:51;;;;;;;6.70;4.32;;;;;;;17.81;100.00;98052.78;5051746;28;20382;-75
2021/07/13 02:52:36;;;;;;;4.47;3.55;;;;;;;17.87;100.00;98076.38;5051802;28;20017;-74
2021/07/13 02:55:13;;;;;;;6.97;3.80;;;;;;;17.73;100.00;98083.38;5051766;28;20028;-75
2021/07/13 02:57:39;;;;;;;7.70;2.92;;;;;;;17.58;100.00;98065.00;5052010;28;20025;-74
2021/07/13 03:00:08;;;;;;;3.35;2.22;;;;;;;17.43;100.00;98060.28;5033877;28;20025;-74
2021/07/13 03:02:34;;;;;;;3.58;2.30;;;;;;;17.46;100.00;98062.47;5051365;28;20063;-74
2021/07/13 03:05:00;;;;;;;5.45;2.58;;;;;;;17.47;100.00;98046.88;5051248;28;20033;-75
2021/07/13 03:07:26;;;;;;;7.43;2.40;;;;;;;17.52;100.00;98030.50;5033713;28;20028;-75
2021/07/13 03:09:53;;;;;;;4.05;2.17;;;;;;;17.65;100.00;98042.88;5033845;28;20482;-75
2021/07/13 03:12:18;;;;;;;4.78;1.95;;;;;;;17.50;100.00;98024.47;5033815;28;20032;-76
2021/07/13 03:14:45;;;;;;;6.82;2.00;;;;;;;17.66;100.00;98037.13;5051654;28;20123;-75
2021/07/13 03:17:12;;;;;;;4.78;1.75;;;;;;;17.57;100.00;98014.13;5051575;28;20530;-76
2021/07/13 03:19:38;;;;;;;4.45;1.83;;;;;;;17.52;100.00;97978.53;5050882;28;20028;-76
2021/07/13 03:22:07;;;;;;;10.80;1.70;;;;;;;17.49;100.00;97985.38;5051293;28;20466;-76
2021/07/13 03:24:33;;;;;;;6.53;1.88;;;;;;;17.53;100.00;97985.69;5033574;28;20044;-76
2021/07/13 03:27:00;;;;;;;5.13;1.90;;;;;;;17.52;100.00;97967.59;5033821;28;20471;-75
2021/07/13 03:29:26;;;;;;;5.20;1.85;;;;;;;17.50;100.00;97975.25;5051510;28;20025;-76
2021/07/13 03:31:51;;;;;;;3.63;1.40;;;;;;;17.25;100.00;97944.00;5033371;28;20025;-75
2021/07/13 03:34:18;;;;;;;3.13;1.40;;;;;;;17.18;100.00;97934.41;5033952;28;20027;-74
2021/07/13 03:36:44;;;;;;;4.65;1.60;;;;;;;17.31;100.00;97964.78;5055423;28;20020;-74
2021/07/13 03:39:10;;;;;;;3.20;1.35;;;;;;;17.16;100.00;97944.78;5055659;28;20040;-74
2021/07/13 03:41:36;;;;;;;2.90;1.50;;;;;;;17.33;100.00;97942.66;5055082;28;20228;-76
2021/07/13 03:44:04;;;;;;;4.55;1.38;;;;;;;17.23;100.00;97932.50;5054577;28;20059;-76
2021/07/13 03:46:35;;;;;;;2.45;1.50;;;;;;;17.29;100.00;97936.91;5033989;28;20099;-73
2021/07/13 03:49:02;;;;;;;3.72;1.90;;;;;;;17.28;100.00;97938.00;5051787;28;20035;-72
2021/07/13 03:51:40;;;;;;;3.50;1.50;;;;;;;17.14;100.00;97904.06;5048503;28;20033;-73
2021/07/13 03:54:07;;;;;;;4.65;1.60;;;;;;;17.26;100.00;97910.09;5039659;28;20028;-72
2021/07/13 03:56:33;;;;;;;5.57;1.45;;;;;;;17.24;100.00;97916.94;5037121;28;20063;-74
2021/07/13 03:58:59;;;;;;;3.65;1.67;;;;;;;17.21;100.00;97909.25;5036234;28;20032;-72
2021/07/13 04:01:24;;;;;;;4.70;1.85;;;;;;;17.31;100.00;97909.28;5036588;28;20474;-74
2021/07/13 04:03:50;;;;;;;6.07;1.85;;;;;;;17.28;100.00;97912.56;5049256;28;20033;-73
2021/07/13 04:06:15;;;;;;;4.25;2.00;;;;;;;17.39;100.00;97927.91;5026592;28;20078;-74
2021/07/13 04:08:41;;;;;;;3.47;1.80;;;;;;;17.36;100.00;97933.91;5054856;28;20029;-73
2021/07/13 04:11:06;;;;;;;6.13;2.45;;;;;;;17.37;100.00;97927.38;5035156;28;20098;-73
2021/07/13 04:13:32;;;;;;;5.25;2.03;;;;;;;17.26;100.00;97910.09;5054574;28;20025;-71
2021/07/13 04:15:57;;;;;;;6.93;2.20;;;;;;;17.32;100.00;97905.50;5053188;28;20021;-70
2021/07/13 04:18:22;;;;;;;6.55;2.28;;;;;;;17.39;100.00;97927.91;5054759;28;20087;-70
2021/07/13 04:20:49;;;;;;;2.97;1.90;;;;;;;17.39;100.00;97911.50;5051952;28;20025;-72
2021/07/13 04:23:14;;;;;;;5.00;2.33;;;;;;;17.33;100.00;97909.03;5043296;28;20032;-70
2021/07/13 04:25:39;;;;;;;4.32;1.85;;;;;;;17.43;100.00;97917.28;5045813;28;20074;-71
2021/07/13 04:28:06;;;;;;;5.57;1.92;;;;;;;17.47;100.00;97904.69;5052393;28;20048;-73
2021/07/13 04:30:31;;;;;;;5.65;1.77;;;;;;;17.53;100.00;97915.38;5034250;28;20052;-71
2021/07/13 04:32:56;;;;;;;6.78;1.98;;;;;;;17.58;100.00;97921.94;5053307;28;20028;-71
2021/07/13 04:35:22;;;;;;;6.28;2.13;;;;;;;17.64;100.00;97915.41;5052953;28;20063;-71
2021/07/13 04:37:48;;;;;;;5.75;1.90;;;;;;;17.58;100.00;97900.91;5051617;28;20032;-71
2021/07/13 04:40:13;;;;;;;2.30;1.42;;;;;;;17.51;100.00;97890.22;5053673;28;20020;-72
2021/07/13 04:42:39;;;;;;;2.90;1.85;;;;;;;17.72;100.00;97909.38;5050277;28;20025;-72
2021/07/13 04:45:05;;;;;;;4.35;1.92;;;;;;;17.73;100.00;97881.75;5051526;28;20100;-71
2021/07/13 04:47:31;;;;;;;3.65;2.08;;;;;;;17.90;99.93;97887.00;5053173;28;20274;-71
2021/07/13 04:49:56;;;;;;;4.50;1.83;;;;;;;18.04;99.70;97883.72;5054135;28;20505;-71
2021/07/13 04:52:21;;;;;;;3.50;1.92;;;;;;;18.14;98.65;97879.06;5050000;28;20541;-72
2021/07/13 04:54:47;;;;;;;6.57;2.03;;;;;;;18.04;97.92;97835.25;5034541;28;20018;-71
2021/07/13 04:57:12;;;;;;;3.85;1.90;;;;;;;18.45;97.13;97881.75;5028931;28;20053;-72
2021/07/13 04:59:37;;;;;;;3.63;1.67;;;;;;;18.42;96.60;97856.81;5055934;28;20386;-70
2021/07/13 05:02:04;;;;;;;8.13;1.70;;;;;;;18.52;95.79;97867.75;5053428;28;20077;-68
2021/07/13 05:04:29;;;;;;;4.82;1.52;;;;;;;18.56;95.90;97877.06;5064125;28;20082;-76
2021/07/13 05:06:54;;;;;;;2.20;1.40;;;;;;;18.54;94.72;97871.84;5042937;28;20020;-76
2021/07/13 05:09:20;;;;;;;5.03;1.60;;;;;;;18.73;94.86;97885.78;5057353;28;20059;-71
2021/07/13 05:11:46;;;;;;;4.45;1.70;;;;;;;19.09;92.30;97904.03;5047197;28;20022;-73
2021/07/13 05:14:11;;;;;;;4.15;1.80;;;;;;;19.26;90.43;97885.34;5045135;28;20063;-69
2021/07/13 05:16:36;;;;;;;4.32;1.80;;;;;;;19.21;89.37;97880.69;5035501;28;20018;-75
2021/07/13 05:19:02;;;;;;;6.63;1.95;;;;;;;19.38;89.50;97879.50;5022119;28;20132;-71
2021/07/13 05:21:27;;;;;;;4.05;1.83;;;;;;;19.35;89.51;97872.66;5047389;28;20029;-69
2021/07/13 05:23:53;;;;;;;3.33;1.77;;;;;;;19.43;90.03;97880.28;5033289;28;20383;-71
2021/07/13 05:26:18;;;;;;;6.50;2.13;;;;;;;19.35;88.58;97875.38;5033135;28;20032;-68
2021/07/13 05:28:46;;;;;;;4.47;1.77;;;;;;;19.47;88.29;97886.03;5032971;28;20033;-69
2021/07/13 05:31:12;;;;;;;3.55;1.73;;;;;;;19.38;88.44;97876.75;5049739;28;20056;-71
2021/07/13 05:33:37;;;;;;;3.50;1.70;;;;;;;19.43;87.65;97882.22;5036302;28;20475;-71
2021/07/13 05:36:02;;;;;;;2.80;1.90;;;;;;;19.69;86.66;97896.63;5033179;28;20505;-70
2021/07/13 05:38:28;;;;;;;5.45;1.70;;;;;;;19.93;84.99;97880.22;5033885;28;20056;-69
2021/07/13 05:40:56;;;;;;;3.80;1.70;;;;;;;19.88;84.31;97892.06;5050372;28;20086;-68
2021/07/13 05:43:21;;;;;;;4.15;1.80;;;;;;;20.11;83.87;97892.44;5053540;28;20393;-73
2021/07/13 05:45:46;;;;;;;4.18;1.63;;;;;;;20.29;83.21;97861.50;5053103;28;20029;-70
2021/07/13 05:48:12;;;;;;;2.15;1.30;;;;;;;20.73;82.81;97882.53;5053020;28;20029;-69
2021/07/13 05:50:38;;;;;;;3.85;1.52;;;;;;;20.60;82.12;97869.47;5051632;28;20592;-69
2021/07/13 05:53:04;;;;;;;5.65;2.00;;;;;;;20.54;82.61;97854.13;5052520;28;20103;-69
2021/07/13 05:55:30;;;;;;;3.67;1.40;;;;;;;20.60;82.31;97874.97;5053027;28;20017;-71
2021/07/13 05:57:55;;;;;;;2.95;1.60;;;;;;;20.70;82.58;97868.56;5051974;28;20024;-71
2021/07/13 06:00:21;;;;;;;5.22;2.22;;;;;;;20.64;83.46;97855.97;5051968;28;20090;-71
2021/07/13 06:02:46;;;;;;;3.20;1.58;;;;;;;20.62;83.41;97841.69;5052524;28;20032;-72
2021/07/13 06:05:12;;;;;;;3.00;1.50;;;;;;;20.52;82.59;97850.84;5046719;28;20025;-72
2021/07/13 06:07:43;;;;;;;2.70;1.40;;;;;;;20.55;82.65;97872.28;5052674;28;20033;-71
2021/07/13 06:10:09;;;;;;;1.98;1.40;;;;;;;20.47;82.15;97848.97;5043751;28;20025;-71
2021/07/13 06:12:34;;;;;;;6.28;1.45;;;;;;;20.47;83.09;97864.66;5050924;28;20540;-73
2021/07/13 06:14:59;;;;;;;3.00;1.70;;;;;;;20.34;83.47;97877.13;5051271;28;20083;-71
2021/07/13 06:17:25;;;;;;;5.45;1.90;;;;;;;20.19;83.98;97869.84;5046831;28;20029;-71
2021/07/13 06:19:50;;;;;;;2.97;1.58;;;;;;;20.15;84.93;97877.03;5046780;28;20025;-71
2021/07/13 06:22:15;;;;;;;6.03;2.15;;;;;;;19.82;86.91;97904.19;5052310;28;20363;-72
2021/07/13 06:24:41;;;;;;;5.38;1.67;;;;;;;19.30;89.33;97896.53;5038658;28;20036;-71
2021/07/13 06:27:06;;;;;;;4.00;1.92;;;;;;;19.22;89.99;97900.69;5045357;28;20036;-71
2021/07/13 06:29:32;;;;;;;3.20;2.20;;;;;;;19.20;90.01;97900.16;5034791;28;20102;-72
2021/07/13 06:31:57;;;;;;;3.22;1.95;;;;;;;19.12;90.77;97909.78;5047277;28;20037;-71
2021/07/13 06:34:22;;;;;;;5.85;2.20;;;;;;;19.10;91.00;97917.50;5041793;28;20044;-71
2021/07/13 06:36:48;;;;;;;4.93;2.30;;;;;;;19.09;92.46;97932.28;5050046;28;20629;-70
2021/07/13 06:39:14;;;;;;;3.28;2.25;;;;;;;19.02;91.78;97934.50;5042449;28;20496;-71
2021/07/13 06:41:39;;;;;;;6.25;2.28;;;;;;;19.11;92.69;97932.81;5030392;28;20029;-69
2021/07/13 06:44:05;;;;;;;3.78;2.25;;;;;;;19.03;93.03;97931.47;5046135;28;20028;-69
2021/07/13 06:46:32;;;;;;;3.95;2.33;;;;;;;18.98;93.62;97920.53;5038994;28;20021;-69
2021/07/13 06:48:57;;;;;;;6.25;3.30;;;;;;;18.74;94.85;97914.81;5032717;28;20108;-72
2021/07/13 06:51:22;;;;;;;8.45;4.68;;;;;;;18.99;94.41;97924.94;5045422;28;20491;-70
2021/07/13 06:53:48;;;;;;;6.75;3.90;;;;;;;19.08;93.68;97894.19;5050152;28;20025;-76
2021/07/13 06:56:13;;;;;;;7.63;3.30;;;;;;;19.49;92.92;97914.81;5050457;28;20048;-68
2021/07/13 06:58:38;;;;;;;5.60;3.42;;;;;;;19.48;90.99;97899.44;5031508;28;20455;-73
2021/07/13 07:01:04;;;;;;;8.57;4.75;;;;;;;19.22;91.14;97919.88;5034157;28;20017;-72
2021/07/13 07:03:32;;;;;;;7.22;4.28;;;;;;;19.37;91.66;97927.22;5054529;28;20028;-72
2021/07/13 07:05:57;;;;;;;8.30;4.30;;;;;;;19.41;91.16;97920.91;5051441;28;20029;-72
2021/07/13 07:08:22;;;;;;;6.50;3.88;;;;;;;19.37;90.99;97897.88;5049600;28;20039;-73
2021/07/13 07:10:48;;;;;;;7.00;3.63;;;;;;;19.54;90.17;97924.94;5036723;28;20515;-72
2021/07/13 07:13:13;;;;;;;3.90;3.05;;;;;;;19.58;90.07;97937.00;5037686;28;20028;-72
2021/07/13 07:15:38;;;;;;;11.68;3.83;;;;;;;18.95;92.72;97915.63;5054990;28;20147;-72
2021/07/13 07:18:04;;;;;;;4.38;3.22;;;;;;;18.93;93.56;97930.69;5055289;28;20021;-72
2021/07/13 07:20:29;;;;;;;3.92;2.85;;;;;;;19.01;93.36;97927.38;5037637;28;20025;-73
2021/07/13 07:22:56;;;;;;;5.75;2.97;;;;;;;19.27;92.00;97933.59;5055359;28;20017;-72
2021/07/13 07:25:21;;;;;;;8.27;2.60;;;;;;;19.37;91.42;97914.34;5037899;28;20020;-73
2021/07/13 07:27:47;;;;;;;5.40;2.47;;;;;;;19.47;90.19;97917.03;5054986;28;20031;-72
2021/07/13 07:30:14;;;;;;;3.30;2.20;;;;;;;19.56;89.45;97914.50;5036626;28;20082;-73
2021/07/13 07:32:40;;;;;;;4.95;2.45;;;;;;;19.59;89.35;97933.13;5055708;28;20021;-72
2021/07/13 07:35:08;;;;;;;3.83;2.50;;;;;;;19.10;91.99;97957.78;5055554;28;20036;-73
2021/07/13 07:37:34;;;;;;;3.97;2.40;;;;;;;18.93;92.43;97941.66;5037474;28;20016;-72
2021/07/13 07:39:59;;;;;;;3.17;2.38;;;;;;;18.75;93.31;97967.75;5055494;28;20017;-73
2021/07/13 07:42:25;;;;;;;5.75;2.58;;;;;;;18.90;92.30;97973.19;5053833;28;20145;-72
2021/07/13 07:44:50;;;;;;;4.45;2.00;;;;;;;18.81;92.53;97950.19;5054506;28;20033;-73
2021/07/13 07:47:16;;;;;;;3.65;2.08;;;;;;;18.84;91.84;97977.06;5055154;28;20028;-73
2021/07/13 07:49:41;;;;;;;9.60;2.17;;;;;;;18.68;92.42;97964.41;5055077;28;20033;-73
2021/07/13 07:52:06;;;;;;;4.80;2.30;;;;;;;18.61;93.13;97938.13;5055782;28;20025;-72
2021/07/13 07:54:32;;;;;;;3.97;1.80;;;;;;;18.57;94.27;97930.75;5037736;28;20025;-73
2021/07/13 07:56:58;;;;;;;4.65;2.03;;;;;;;18.65;94.76;97956.75;5046898;28;20390;-73
2021/07/13 07:59:23;;;;;;;4.15;2.30;;;;;;;18.60;95.71;97938.41;5053465;22;20044;-71
2021/07/13 08:01:48;;;;;;;4.53;2.33;;;;;;;18.45;96.42;97924.75;5054977;28;20036;-72
2021/07/13 08:04:14;;;;;;;4.93;2.03;;;;;;;18.55;96.84;97941.19;5055399;28;20051;-71
2021/07/13 08:06:40;;;;;;;7.18;2.13;;;;;;;18.54;97.24;97950.47;5037218;28;20025;-71
2021/07/13 08:09:07;;;;;;;4.95;2.17;;;;;;;18.54;97.40;97950.47;5050601;28;20021;-71
2021/07/13 08:11:37;;;;;;;4.75;2.20;;;;;;;18.28;97.82;97972.41;5048363;28;20017;-72
2021/07/13 08:14:04;;;;;;;8.75;2.38;;;;;;;18.25;99.39;97974.88;5034763;28;20025;-72
2021/07/13 08:16:35;;;;;;;7.82;2.45;;;;;;;18.28;99.28;97968.84;5034869;28;20090;-72
2021/07/13 08:19:00;;;;;;;6.22;2.45;;;;;;;18.28;99.49;97974.31;5030828;28;20029;-72
2021/07/13 08:21:25;;;;;;;4.50;2.22;;;;;;;18.23;99.32;97969.66;5053333;28;20090;-72
2021/07/13 08:23:51;;;;;;;7.07;2.40;;;;;;;18.26;99.95;97960.06;5031179;28;20025;-72
2021/07/13 08:26:16;;;;;;;5.80;2.20;;;;;;;18.21;99.09;97951.84;5035942;28;20470;-72
2021/07/13 08:28:41;;;;;;;4.00;1.90;;;;;;;18.26;99.54;97940.91;5034758;28;20025;-72
2021/07/13 08:31:07;;;;;;;5.93;2.35;;;;;;;18.42;100.00;97945.31;5034491;28;20026;-72
2021/07/13 08:33:33;;;;;;;11.63;2.50;;;;;;;18.35;99.61;97961.19;5051199;28;20043;-72
2021/07/13 08:35:58;;;;;;;8.27;3.10;;;;;;;18.10;100.00;97951.88;5035835;28;20033;-72
2021/07/13 08:38:23;;;;;;;5.78;2.45;;;;;;;18.05;100.00;97932.72;5051655;28;20467;-72
2021/07/13 08:40:49;;;;;;;7.80;2.55;;;;;;;18.18;100.00;97958.69;5049272;28;20032;-71
2021/07/13 08:43:15;;;;;;;4.70;2.60;;;;;;;18.18;100.00;97953.22;5054076;28;20021;-71
2021/07/13 08:45:42;;;;;;;13.13;2.70;;;;;;;18.29;100.00;97954.06;5054309;28;20074;-72
2021/07/13 08:48:12;;;;;;;8.00;3.22;;;;;;;18.39;100.00;97938.47;5054282;28;20063;-73
2021/07/13 08:50:38;;;;;;;6.30;2.85;;;;;;;18.42;100.00;97941.72;5035199;28;20474;-73
2021/07/13 08:53:04;;;;;;;6.20;3.08;;;;;;;18.44;99.88;97967.75;5053126;28;20112;-71
2021/07/13 08:55:29;;;;;;;7.82;2.55;;;;;;;18.47;98.75;97961.72;5053872;28;20033;-71
2021/07/13 08:57:54;;;;;;;5.95;2.80;;;;;;;18.33;99.11;97946.94;5044212;28;20029;-71
2021/07/13 09:00:20;;;;;;;7.22;3.35;;;;;;;18.42;98.75;97964.47;5033970;28;20026;-71
2021/07/13 09:03:06;;;;;;;7.72;3.45;;;;;;;18.48;100.00;97965.28;5016090;28;20049;-71
2021/07/13 09:05:47;;;;;;;5.70;2.70;;;;;;;18.45;99.67;97963.91;5051968;28;20048;-71
2021/07/13 09:08:24;;;;;;;6.05;2.60;;;;;;;18.57;99.91;97978.13;5046179;28;20044;-71
2021/07/13 09:11:07;;;;;;;4.45;2.80;;;;;;;18.51;98.55;97984.72;5052909;28;20359;-71
2021/07/13 09:13:46;;;;;;;7.18;2.78;;;;;;;18.29;99.69;97976.78;5037478;28;20040;-71
2021/07/13 09:16:34;;;;;;;2.90;2.05;;;;;;;18.13;98.87;97973.22;5016115;28;20028;-72
2021/07/13 09:19:00;;;;;;;0.80;0.57;;;;;;;18.02;94.84;97982.50;5033762;28;20026;-71
2021/07/13 09:21:33;;;;;;;1.13;0.50;;;;;;;17.82;94.62;97980.56;5041530;28;20025;-72
2021/07/13 09:24:21;;;;;;;0.80;0.43;;;;;;;17.49;96.29;97995.50;5034732;28;20159;-71
2021/07/13 09:26:57;;;;;;;1.08;0.30;;;;;;;17.42;95.82;97998.50;5032316;28;20031;-72
2021/07/13 09:29:42;;;;;;;0.22;0.13;;;;;;;17.29;95.83;98008.00;5064023;28;20040;-71
2021/07/13 09:32:24;;;;;;;0.43;0.20;;;;;;;17.14;95.38;98016.13;5047879;28;20028;-73
2021/07/13 09:34:54;;;;;;;0.32;0.10;;;;;;;17.07;93.85;98026.47;5064671;28;20166;-72
2021/07/13 09:37:22;;;;;;;0.55;0.17;;;;;;;17.00;94.40;98014.94;5070834;28;20021;-71
2021/07/13 09:39:58;;;;;;;0.35;0.10;;;;;;;16.91;93.56;98011.88;5068670;28;20085;-72
2021/07/13 09:42:26;;;;;;;0.28;0.08;;;;;;;16.93;94.29;98000.69;5061803;28;20456;-72
2021/07/13 09:44:52;;;;;;;0.00;0.00;;;;;;;16.75;95.17;98004.66;5053634;28;20025;-72
2021/07/13 09:47:30;;;;;;;0.13;0.10;;;;;;;16.65;95.09;98005.41;5052687;28;20043;-72
2021/07/13 09:49:58;;;;;;;0.15;0.10;;;;;;;16.41;95.68;98010.41;5053039;28;20025;-71
2021/07/13 09:52:25;;;;;;;1.27;0.10;;;;;;;16.47;94.64;98024.91;5052959;28;20033;-72
2021/07/13 09:54:51;;;;;;;0.25;0.00;;;;;;;16.48;93.39;98001.97;5034741;28;20037;-72
2021/07/13 09:57:27;;;;;;;1.75;0.10;;;;;;;16.17;94.23;98012.66;5052883;28;20036;-72
2021/07/13 09:59:56;;;;;;;1.98;0.08;;;;;;;15.67;96.07;97997.41;5052107;28;20083;-72
2021/07/13 10:02:25;;;;;;;0.10;0.10;;;;;;;15.93;94.77;98034.81;5050290;28;20040;-72
2021/07/13 10:04:52;;;;;;;1.70;0.10;;;;;;;15.95;94.36;98049.00;5052068;28;20116;-72
2021/07/13 10:07:19;;;;;;;1.20;0.10;;;;;;;15.74;95.07;98058.03;5052630;28;20086;-71
2021/07/13 10:09:51;;;;;;;0.10;0.00;;;;;;;15.45;95.74;98066.38;5052528;28;20551;-71
2021/07/13 10:12:22;;;;;;;0.52;0.10;;;;;;;15.53;96.92;98068.66;5052509;28;20367;-71
2021/07/13 10:14:50;;;;;;;0.10;0.10;;;;;;;15.25;95.66;98066.13;5050382;28;20029;-71
2021/07/13 10:17:17;;;;;;;0.10;0.10;;;;;;;15.22;96.01;98093.84;5051048;28;20091;-71
2021/07/13 10:19:51;;;;;;;0.35;0.25;;;;;;;15.25;97.48;98105.09;5050910;28;20040;-71
2021/07/13 10:22:20;;;;;;;0.20;0.17;;;;;;;15.19;96.19;98099.81;5051298;28;20029;-73
2021/07/13 10:24:53;;;;;;;0.10;0.10;;;;;;;15.24;95.88;98110.78;5051355;28;20055;-74
2021/07/13 10:27:28;;;;;;;1.25;0.13;;;;;;;15.06;96.37;98071.88;5034418;28;20029;-74
2021/07/13 10:29:55;;;;;;;3.70;0.10;;;;;;;15.27;96.33;98061.22;5033386;28;20538;-74
2021/07/13 10:32:23;;;;;;;0.30;0.25;;;;;;;15.30;97.46;98060.72;5052310;28;20567;-74
2021/07/13 10:34:54;;;;;;;0.20;0.05;;;;;;;15.48;96.07;98060.44;5052025;28;20039;-74
2021/07/13 10:37:25;;;;;;;1.02;0.08;;;;;;;15.87;95.19;98049.44;5052294;28;20433;-74
2021/07/13 10:39:52;;;;;;;0.10;0.00;;;;;;;16.24;91.84;98035.09;5051732;28;20013;-74
2021/07/13 10:42:42;;;;;;;0.10;0.10;;;;;;;16.30;92.28;98053.19;5050945;28;20502;-74
2021/07/13 10:45:19;;;;;;;0.30;0.10;;;;;;;16.22;92.44;98050.91;5032294;28;20108;-74
2021/07/13 10:48:00;;;;;;;0.43;0.10;;;;;;;15.99;91.72;98058.31;5050570;28;20036;-74
2021/07/13 10:50:25;;;;;;;1.45;0.10;;;;;;;15.99;94.24;98050.13;5045345;28;20442;-74
2021/07/13 10:53:18;;;;;;;0.05;0.00;;;;;;;15.94;91.80;98076.53;5032283;28;20032;-74
2021/07/13 10:55:50;;;;;;;0.43;0.10;;;;;;;15.76;92.44;98094.06;5012260;28;20033;-74
2021/07/13 10:58:15;;;;;;;0.03;0.03;;;;;;;15.85;91.76;98129.88;5012271;28;20598;-74
2021/07/13 11:00:58;;;;;;;1.60;0.10;;;;;;;15.68;92.59;98140.84;5045102;28;20033;-74
2021/07/13 11:03:27;;;;;;;0.90;0.10;;;;;;;15.63;92.31;98144.31;5049492;28;20105;-74
2021/07/13 11:05:52;;;;;;;0.73;0.10;;;;;;;15.51;91.05;98141.72;5035581;28;20083;-74
2021/07/13 11:09:00;;;;;;;0.52;0.03;;;;;;;15.37;92.72;98154.03;5029965;28;20108;-74
2021/07/13 11:11:28;;;;;;;0.35;0.17;;;;;;;15.45;92.78;98178.16;5031919;28;20082;-74
2021/07/13 11:13:58;;;;;;;0.15;0.10;;;;;;;15.04;94.11;98141.28;5031272;28;20060;-73
2021/07/13 11:16:26;;;;;;;2.40;0.17;;;;;;;15.22;94.55;98165.56;5049847;28;20031;-74
2021/07/13 11:18:52;;;;;;;1.98;0.38;;;;;;;15.23;95.64;98172.66;5036487;28;20036;-74
2021/07/13 11:21:25;;;;;;;0.25;0.10;;;;;;;15.18;96.63;98167.13;5042578;28;20025;-74
2021/07/13 11:23:56;;;;;;;0.55;0.10;;;;;;;15.28;96.51;98139.19;5050155;28;20690;-74
2021/07/13 11:26:23;;;;;;;0.00;0.00;;;;;;;15.55;95.73;98087.50;5032239;28;20090;-74
2021/07/13 11:29:00;;;;;;;0.57;0.10;;;;;;;16.02;94.59;98116.19;5032318;28;20060;-74
2021/07/13 11:31:35;;;;;;;1.98;0.10;;;;;;;16.07;91.87;98147.09;5050533;28;20032;-74
2021/07/13 11:34:10;;;;;;;0.60;0.20;;;;;;;16.42;91.77;98145.81;5032725;28;20040;-73
2021/07/13 11:36:41;;;;;;;0.20;0.10;;;;;;;16.77;90.34;98156.31;5050214;28;20059;-74